Time;durP1;ratioP1;P1;durP2;ratioP2;P2;SDS_P1;SDS_P2;PMS_P1;PMS_P2;Temp;Humidity;BMP_temperature;BMP_pressure;BME280_temperature;BME280_humidity;BME280_pressure;Samples;Min_cycle;Max_cycle;Signal;HPM_P1;HPM_P2
2022/12/06 00:01:28;;;;;;;23.95;16.45;;;;;;;8.15;100.00;99017.56;5093310;28;20246;-62
2022/12/06 00:03:58;;;;;;;29.02;18.17;;;;;;;8.04;100.00;99004.34;5093308;28;20177;-61
2022/12/06 00:06:26;;;;;;;27.55;17.17;;;;;;;8.12;100.00;99013.38;5094039;28;20638;-61
2022/12/06 00:08:52;;;;;;;33.72;18.48;;;;;;;8.11;100.00;99021.19;5093389;28;20211;-61
2022/12/06 00:11:24;;;;;;;26.80;17.73;;;;;;;8.11;100.00;99022.00;5093552;28;20271;-61
2022/12/06 00:13:55;;;;;;;33.40;18.42;;;;;;;8.30;100.00;99021.97;5093361;28;20179;-61
2022/12/06 00:16:21;;;;;;;31.58;18.60;;;;;;;8.41;100.00;99017.97;5093298;28;20177;-61
2022/12/06 00:18:47;;;;;;;27.92;17.67;;;;;;;7.93;100.00;98968.78;5093767;28;20220;-61
2022/12/06 00:21:22;;;;;;;34.30;19.30;;;;;;;8.10;100.00;99010.03;5093175;28;20169;-62
2022/12/06 00:23:59;;;;;;;36.35;18.98;;;;;;;8.07;100.00;99015.34;5094000;28;20175;-61
2022/12/06 00:26:25;;;;;;;33.10;18.17;;;;;;;7.96;100.00;98984.09;5093685;28;20222;-61
2022/12/06 00:28:56;;;;;;;29.02;18.50;;;;;;;7.90;100.00;98955.22;5093065;28;20530;-61
2022/12/06 00:31:23;;;;;;;32.33;19.65;;;;;;;7.72;100.00;98926.06;5093826;28;20181;-61
2022/12/06 00:33:49;;;;;;;31.42;18.33;;;;;;;8.08;100.00;98993.81;5093024;28;20207;-61
2022/12/06 00:36:18;;;;;;;32.97;19.23;;;;;;;8.14;100.00;99001.25;5093252;28;20204;-61
2022/12/06 00:38:43;;;;;;;31.83;19.05;;;;;;;8.02;100.00;98963.19;5093158;28;20176;-62
2022/12/06 00:41:11;;;;;;;32.17;18.15;;;;;;;7.99;100.00;98955.59;5092502;28;20581;-62
2022/12/06 00:43:37;;;;;;;31.38;19.17;;;;;;;8.32;100.00;99002.94;5092857;28;20222;-62
2022/12/06 00:46:05;;;;;;;28.33;17.52;;;;;;;8.02;100.00;98962.34;5092800;28;20208;-62
2022/12/06 00:48:31;;;;;;;32.67;17.27;;;;;;;8.31;100.00;99003.84;5092769;28;20188;-62
2022/12/06 00:50:56;;;;;;;34.45;17.88;;;;;;;7.89;100.00;98949.25;5092497;28;20172;-62
2022/12/06 00:53:22;;;;;;;31.25;17.08;;;;;;;8.03;100.00;98987.22;5092411;28;20184;-62
2022/12/06 00:55:48;;;;;;;29.52;17.55;;;;;;;7.82;100.00;98958.16;5092382;28;20183;-62
2022/12/06 00:58:15;;;;;;;33.15;18.33;;;;;;;7.85;100.00;98945.16;5092687;28;20184;-62
2022/12/06 01:00:40;;;;;;;29.65;18.90;;;;;;;7.95;100.00;98936.06;5093145;28;20233;-62
2022/12/06 01:03:07;;;;;;;30.50;16.50;;;;;;;7.86;100.00;98887.56;5092466;28;20223;-62
2022/12/06 01:05:33;;;;;;;28.50;16.73;;;;;;;8.18;100.00;98956.38;5093121;28;20172;-62
2022/12/06 01:07:58;;;;;;;28.02;17.25;;;;;;;7.66;100.00;98871.44;5092616;28;20210;-62
2022/12/06 01:10:24;;;;;;;32.67;18.58;;;;;;;8.24;100.00;98968.97;5092815;28;20255;-61
2022/12/06 01:12:49;;;;;;;30.75;18.35;;;;;;;7.92;100.00;98912.19;5092552;28;20168;-62
2022/12/06 01:15:15;;;;;;;29.38;18.05;;;;;;;8.14;100.00;98959.16;5092437;28;20660;-62
2022/12/06 01:17:41;;;;;;;30.45;19.27;;;;;;;8.11;100.00;98951.59;5092502;28;20180;-62
2022/12/06 01:20:06;;;;;;;30.48;17.75;;;;;;;7.62;100.00;98878.47;5092180;28;20604;-62
2022/12/06 01:22:32;;;;;;;28.63;18.13;;;;;;;7.87;100.00;98914.16;5092228;28;20218;-62
2022/12/06 01:24:58;;;;;;;27.42;17.40;;;;;;;8.08;100.00;98944.84;5092959;28;20172;-62
2022/12/06 01:27:24;;;;;;;28.55;17.27;;;;;;;8.02;100.00;98918.53;5092328;28;20180;-62
2022/12/06 01:29:49;;;;;;;34.95;18.60;;;;;;;8.20;100.00;98930.53;5092313;28;20237;-62
2022/12/06 01:32:15;;;;;;;29.52;18.48;;;;;;;8.26;100.00;98946.53;5092613;28;20569;-62
2022/12/06 01:34:40;;;;;;;33.70;17.42;;;;;;;8.03;100.00;98908.16;5092585;28;20176;-62
2022/12/06 01:37:06;;;;;;;28.95;16.55;;;;;;;8.25;100.00;98931.97;5092297;28;20187;-62
2022/12/06 01:39:31;;;;;;;30.92;15.43;;;;;;;8.32;100.00;98941.06;5092180;28;20259;-62
2022/12/06 01:41:57;;;;;;;29.90;17.20;;;;;;;8.29;100.00;98948.97;5092100;28;20200;-62
2022/12/06 01:44:56;;;;;;;31.77;17.83;;;;;;;8.15;100.00;98930.72;5092120;28;20618;-62
2022/12/06 01:47:27;;;;;;;29.17;15.80;;;;;;;8.11;100.00;98939.53;5049548;28;20671;-62
2022/12/06 01:50:05;;;;;;;28.88;16.98;;;;;;;8.19;100.00;98936.56;5049627;28;20368;-62
2022/12/06 01:52:38;;;;;;;30.52;17.02;;;;;;;7.73;100.00;98842.72;5050313;28;20213;-62
2022/12/06 01:55:07;;;;;;;33.90;16.60;;;;;;;8.22;100.00;98941.63;5049567;28;20223;-62
2022/12/06 01:57:33;;;;;;;28.65;16.38;;;;;;;8.14;100.00;98946.28;5049604;28;20255;-62
2022/12/06 01:59:59;;;;;;;28.33;15.40;;;;;;;8.24;100.00;98940.63;5049405;28;20709;-62
2022/12/06 02:02:25;;;;;;;26.05;13.93;;;;;;;7.76;100.00;98870.88;5049296;28;20739;-62
2022/12/06 02:04:51;;;;;;;26.42;14.45;;;;;;;8.20;100.00;98948.56;5030168;28;20218;-62
2022/12/06 02:07:19;;;;;;;27.08;14.52;;;;;;;8.18;100.00;98934.91;5029659;28;20190;-62
2022/12/06 02:09:45;;;;;;;26.65;15.93;;;;;;;8.12;100.00;98932.63;5029605;28;20194;-62
2022/12/06 02:12:14;;;;;;;23.80;14.63;;;;;;;8.20;100.00;98946.00;5029611;28;20200;-62
2022/12/06 02:14:43;;;;;;;32.45;14.82;;;;;;;8.18;100.00;98927.16;5029521;28;20202;-62
2022/12/06 02:17:11;;;;;;;23.02;13.55;;;;;;;8.18;100.00;98935.75;5029555;28;20222;-62
2022/12/06 02:20:02;;;;;;;23.60;14.57;;;;;;;8.22;100.00;98937.28;5029872;28;20244;-62
2022/12/06 02:23:01;;;;;;;29.92;16.30;;;;;;;8.24;100.00;98930.31;5042245;28;20262;-62
2022/12/06 02:25:45;;;;;;;31.67;15.25;;;;;;;8.26;100.00;98931.06;5070607;28;20659;-62
2022/12/06 02:28:31;;;;;;;27.35;15.32;;;;;;;8.29;100.00;98930.91;5072727;28;20181;-62
2022/12/06 02:31:06;;;;;;;29.88;15.30;;;;;;;7.91;100.00;98879.59;5073556;28;20193;-62
2022/12/06 02:33:59;;;;;;;26.30;16.17;;;;;;;7.93;100.00;98883.75;5072717;28;20181;-62
2022/12/06 02:36:36;;;;;;;27.88;16.65;;;;;;;8.13;100.00;98924.00;5089588;28;20237;-62
2022/12/06 02:39:08;;;;;;;29.67;16.60;;;;;;;8.08;100.00;98913.91;5095782;28;20200;-62
2022/12/06 02:41:52;;;;;;;32.13;17.90;;;;;;;7.98;100.00;98904.97;5095443;28;20228;-62
2022/12/06 02:44:25;;;;;;;35.80;16.75;;;;;;;7.88;100.00;98919.25;5095942;28;20188;-62
2022/12/06 02:46:53;;;;;;;28.27;16.10;;;;;;;7.68;100.00;98893.63;5095909;28;20533;-62
2022/12/06 02:49:21;;;;;;;29.25;16.17;;;;;;;7.43;100.00;98841.69;5094982;28;20176;-62
2022/12/06 02:51:49;;;;;;;30.88;17.05;;;;;;;7.87;100.00;98925.28;5094896;28;20184;-62
2022/12/06 02:54:16;;;;;;;27.52;16.40;;;;;;;8.05;100.00;98916.63;5094878;28;20170;-62
2022/12/06 02:56:41;;;;;;;24.83;15.38;;;;;;;7.94;100.00;98880.31;5094829;28;20707;-62
2022/12/06 02:59:07;;;;;;;28.15;15.45;;;;;;;7.96;100.00;98878.47;5094854;28;20177;-62
2022/12/06 03:01:36;;;;;;;22.92;14.05;;;;;;;7.73;100.00;98837.56;5094691;28;20291;-62
2022/12/06 03:04:10;;;;;;;23.70;14.98;;;;;;;8.25;100.00;98931.13;5094665;28;20192;-62
2022/12/06 03:07:03;;;;;;;23.75;13.82;;;;;;;8.22;100.00;98932.13;5094658;28;20256;-62
2022/12/06 03:09:51;;;;;;;19.90;13.90;;;;;;;7.85;100.00;98875.59;5095478;28;20245;-62
2022/12/06 03:12:16;;;;;;;22.00;15.25;;;;;;;8.17;100.00;98936.66;5095477;28;20232;-62
2022/12/06 03:14:54;;;;;;;22.40;13.63;;;;;;;7.94;100.00;98895.75;5094555;28;20661;-62
2022/12/06 03:17:30;;;;;;;22.90;13.85;;;;;;;8.00;100.00;98931.53;5094552;28;20165;-62
2022/12/06 03:20:03;;;;;;;22.27;14.05;;;;;;;8.12;100.00;98922.31;5095089;28;20168;-62
2022/12/06 03:22:34;;;;;;;22.08;14.23;;;;;;;8.17;100.00;98918.63;5094199;28;20204;-62
2022/12/06 03:25:01;;;;;;;19.83;12.68;;;;;;;8.26;100.00;98910.44;5094315;28;20631;-62
2022/12/06 03:27:29;;;;;;;22.85;12.75;;;;;;;8.43;100.00;98923.28;5094251;28;20181;-62
2022/12/06 03:29:59;;;;;;;22.10;13.32;;;;;;;7.84;100.00;98829.28;5093916;28;20535;-62
2022/12/06 03:32:28;;;;;;;20.27;13.32;;;;;;;8.08;100.00;98877.84;5094216;28;20198;-62
2022/12/06 03:34:58;;;;;;;26.08;14.65;;;;;;;8.22;100.00;98921.81;5094082;28;20173;-62
2022/12/06 03:37:26;;;;;;;23.65;14.77;;;;;;;7.78;100.00;98873.41;5093966;28;20195;-62
2022/12/06 03:40:18;;;;;;;26.35;15.57;;;;;;;8.04;100.00;98914.97;5093934;28;20267;-62
2022/12/06 03:42:45;;;;;;;27.25;15.05;;;;;;;8.08;100.00;98910.50;5093865;28;20196;-62
2022/12/06 03:45:12;;;;;;;28.20;16.15;;;;;;;8.11;100.00;98913.75;5094730;28;20185;-62
2022/12/06 03:47:59;;;;;;;25.50;15.48;;;;;;;7.80;100.00;98875.00;5093799;28;20191;-62
2022/12/06 03:50:31;;;;;;;30.05;16.92;;;;;;;7.81;100.00;98862.94;5094382;28;20164;-62
2022/12/06 03:52:58;;;;;;;30.20;17.33;;;;;;;7.76;100.00;98865.72;5093465;28;20712;-62
2022/12/06 03:55:23;;;;;;;28.17;17.45;;;;;;;8.06;100.00;98915.75;5094484;28;20516;-62
2022/12/06 03:57:49;;;;;;;29.52;17.65;;;;;;;7.59;100.00;98852.91;5093317;28;20180;-62
2022/12/06 04:00:15;;;;;;;33.25;17.52;;;;;;;7.55;100.00;98855.66;5093523;28;20172;-62
2022/12/06 04:02:40;;;;;;;27.58;18.00;;;;;;;7.84;100.00;98920.31;5093698;28;20610;-62
2022/12/06 04:05:06;;;;;;;31.50;17.63;;;;;;;7.59;100.00;98863.19;5094058;28;20238;-62
2022/12/06 04:07:32;;;;;;;29.50;16.67;;;;;;;7.75;100.00;98882.09;5093387;28;20230;-62
2022/12/06 04:10:03;;;;;;;32.15;18.42;;;;;;;7.90;100.00;98883.94;5094260;28;20259;-62
2022/12/06 04:15:14;;;;;;;30.20;17.80;;;;;;;7.97;100.00;98893.00;5093954;28;20164;-62
2022/12/06 04:20:26;;;;;;;31.13;17.52;;;;;;;7.67;100.00;98857.63;5093869;28;20167;-62
2022/12/06 04:23:03;;;;;;;32.03;17.52;;;;;;;7.58;100.00;98842.66;5093096;28;20674;-62
2022/12/06 04:25:34;;;;;;;28.52;16.10;;;;;;;7.45;100.00;98816.69;5092893;28;20206;-62
2022/12/06 04:38:58;;;;;;;26.05;14.68;;;;;;;7.97;100.00;98900.75;5093288;28;20168;-62
2022/12/06 04:44:07;;;;;;;30.27;15.23;;;;;;;7.95;100.00;98888.84;5092949;28;20271;-62
2022/12/06 04:46:33;;;;;;;34.20;16.92;;;;;;;8.03;100.00;98905.59;5093041;28;20199;-62
2022/12/06 04:48:58;;;;;;;25.17;14.32;;;;;;;8.04;100.00;98904.66;5091980;28;20204;-62
2022/12/06 04:51:24;;;;;;;24.60;14.68;;;;;;;7.79;100.00;98854.44;5092729;28;20176;-62
2022/12/06 04:53:50;;;;;;;25.88;13.98;;;;;;;7.38;100.00;98812.75;5093270;28;20208;-62
2022/12/06 04:56:16;;;;;;;28.77;15.50;;;;;;;7.84;100.00;98904.84;5092684;28;20172;-62
2022/12/06 04:58:42;;;;;;;28.35;16.00;;;;;;;7.50;100.00;98840.47;5092221;28;20619;-62
2022/12/06 05:01:08;;;;;;;27.55;14.82;;;;;;;7.58;100.00;98846.06;5093369;28;20257;-62
2022/12/06 05:03:33;;;;;;;23.38;14.52;;;;;;;7.72;100.00;98864.25;5093184;28;20180;-62
2022/12/06 05:05:59;;;;;;;29.65;16.00;;;;;;;7.93;100.00;98901.78;5092533;28;20254;-62
2022/12/06 05:08:24;;;;;;;32.53;16.58;;;;;;;7.72;100.00;98864.25;5092538;28;20176;-62
2022/12/06 05:10:50;;;;;;;32.63;17.77;;;;;;;7.80;100.00;98867.25;5092405;28;20245;-62
2022/12/06 05:13:17;;;;;;;32.70;16.67;;;;;;;8.02;100.00;98914.22;5093371;28;20255;-62
2022/12/06 05:15:54;;;;;;;29.48;16.25;;;;;;;8.04;100.00;98922.72;5092693;28;20176;-62
2022/12/06 05:18:20;;;;;;;28.13;17.35;;;;;;;7.77;100.00;98864.84;5092974;28;20592;-62
2022/12/06 05:20:46;;;;;;;30.10;16.50;;;;;;;7.77;100.00;98882.03;5092642;28;20272;-62
2022/12/06 05:23:12;;;;;;;30.10;17.00;;;;;;;7.75;100.00;98869.22;5092333;28;20550;-62
2022/12/06 05:25:37;;;;;;;29.90;18.48;;;;;;;8.00;100.00;98912.63;5092014;28;20608;-62
2022/12/06 05:28:03;;;;;;;29.05;16.83;;;;;;;7.63;100.00;98871.59;5092601;28;20224;-62
2022/12/06 05:30:29;;;;;;;27.35;16.38;;;;;;;7.54;100.00;98865.16;5093115;28;20176;-62
2022/12/06 05:32:54;;;;;;;32.30;17.98;;;;;;;7.44;100.00;98858.78;5092267;28;20249;-60
2022/12/06 05:35:20;;;;;;;31.60;17.63;;;;;;;7.72;100.00;98887.44;5091986;28;20172;-60
2022/12/06 05:37:45;;;;;;;32.78;17.75;;;;;;;7.54;100.00;98860.00;5092766;28;20180;-61
2022/12/06 05:40:11;;;;;;;33.65;17.08;;;;;;;7.50;100.00;98861.06;5092724;28;20179;-61
2022/12/06 05:42:39;;;;;;;30.27;17.42;;;;;;;7.69;100.00;98905.59;5092899;28;20238;-61
2022/12/06 05:45:06;;;;;;;31.77;17.60;;;;;;;7.80;100.00;98918.78;5092153;28;20247;-61
2022/12/06 05:47:31;;;;;;;31.05;18.08;;;;;;;7.85;100.00;98906.50;5092780;28;20289;-61
2022/12/06 05:49:57;;;;;;;34.88;18.52;;;;;;;8.07;100.00;98909.69;5092094;28;20647;-61
2022/12/06 05:52:22;;;;;;;32.08;18.42;;;;;;;8.14;100.00;98912.75;5092369;28;20550;-61
2022/12/06 05:54:47;;;;;;;37.78;18.05;;;;;;;7.82;100.00;98864.63;5092393;28;20204;-61
2022/12/06 05:57:13;;;;;;;35.85;19.75;;;;;;;7.78;100.00;98863.09;5092041;28;20180;-61
2022/12/06 05:59:38;;;;;;;36.70;18.35;;;;;;;7.79;100.00;98855.28;5092611;28;20191;-61
2022/12/06 06:02:04;;;;;;;34.78;18.98;;;;;;;7.93;100.00;98864.91;5095844;28;20573;-62
2022/12/06 06:04:29;;;;;;;32.45;18.05;;;;;;;8.17;100.00;98908.31;5095843;28;20613;-62
2022/12/06 06:06:55;;;;;;;33.92;18.77;;;;;;;8.01;100.00;98881.66;5095852;28;20172;-61
2022/12/06 06:09:20;;;;;;;34.38;18.23;;;;;;;8.00;100.00;98874.84;5095786;28;20172;-61
2022/12/06 06:11:45;;;;;;;37.70;19.33;;;;;;;8.27;100.00;98919.84;5095974;28;20206;-61
2022/12/06 06:14:11;;;;;;;29.45;18.35;;;;;;;7.98;100.00;98868.91;5095377;28;20182;-61
2022/12/06 06:16:36;;;;;;;35.22;19.17;;;;;;;8.04;100.00;98871.16;5095674;28;20657;-61
2022/12/06 06:19:02;;;;;;;32.78;18.73;;;;;;;8.34;100.00;98925.53;5095896;28;20180;-61
2022/12/06 06:21:27;;;;;;;35.95;19.10;;;;;;;7.96;100.00;98873.31;5095516;28;20267;-61
2022/12/06 06:23:55;;;;;;;32.70;18.65;;;;;;;8.23;100.00;98909.75;5095518;28;20227;-61
2022/12/06 06:26:21;;;;;;;28.65;18.15;;;;;;;7.99;100.00;98862.84;5095150;28;20177;-61
2022/12/06 06:28:46;;;;;;;33.92;20.13;;;;;;;8.24;100.00;98899.38;5095455;28;20210;-61
2022/12/06 06:31:11;;;;;;;33.83;19.20;;;;;;;7.91;100.00;98846.94;5095309;28;20271;-60
2022/12/06 06:33:37;;;;;;;34.72;20.27;;;;;;;8.36;100.00;98911.63;5095319;28;20168;-61
2022/12/06 06:36:02;;;;;;;37.28;19.50;;;;;;;8.17;100.00;98856.75;5094997;28;20233;-61
2022/12/06 06:38:28;;;;;;;40.13;20.75;;;;;;;8.27;100.00;98873.44;5095146;28;20180;-60
2022/12/06 06:40:53;;;;;;;36.08;19.98;;;;;;;8.50;100.00;98896.28;5095210;28;20637;-60
2022/12/06 06:43:19;;;;;;;36.45;20.73;;;;;;;8.51;100.00;98887.63;5095107;28;20565;-60
2022/12/06 06:45:51;;;;;;;40.60;22.00;;;;;;;8.75;100.00;98919.03;5095046;28;20249;-60
2022/12/06 06:48:17;;;;;;;40.78;25.73;;;;;;;8.53;100.00;98865.19;5095023;28;20172;-61
2022/12/06 06:50:42;;;;;;;49.58;28.38;;;;;;;8.74;100.00;98900.13;5094992;28;20225;-60
2022/12/06 06:53:08;;;;;;;43.70;24.25;;;;;;;8.63;100.00;98904.22;5094879;28;20646;-60
2022/12/06 06:55:35;;;;;;;46.05;25.10;;;;;;;8.63;100.00;98902.44;5095690;28;20176;-61
2022/12/06 06:58:00;;;;;;;44.45;25.02;;;;;;;8.74;100.00;98909.63;5094815;28;20180;-60
2022/12/06 07:00:26;;;;;;;46.17;26.23;;;;;;;8.28;100.00;98823.53;5095006;28;20322;-60
2022/12/06 07:02:51;;;;;;;50.10;24.85;;;;;;;8.87;100.00;98913.22;5094368;28;20207;-62
2022/12/06 07:05:17;;;;;;;46.13;26.83;;;;;;;8.82;100.00;98908.31;5095221;28;20180;-61
2022/12/06 07:07:43;;;;;;;54.33;27.13;;;;;;;8.51;100.00;98861.81;5094684;28;20594;-61
2022/12/06 07:10:09;;;;;;;50.90;27.15;;;;;;;8.88;100.00;98902.81;5094531;28;20264;-60
2022/12/06 07:12:34;;;;;;;53.40;29.48;;;;;;;8.73;100.00;98864.94;5094084;28;20183;-61
2022/12/06 07:14:59;;;;;;;51.40;30.88;;;;;;;8.73;100.00;98849.44;5094142;28;20211;-61
2022/12/06 07:17:25;;;;;;;59.05;31.17;;;;;;;8.93;100.00;98863.84;5094447;28;20172;-62
2022/12/06 07:19:51;;;;;;;58.78;32.40;;;;;;;9.26;100.00;98916.22;5094381;28;20180;-61
2022/12/06 07:22:16;;;;;;;59.65;32.90;;;;;;;9.08;100.00;98874.16;5095074;28;20245;-61
2022/12/06 07:24:41;;;;;;;59.92;31.58;;;;;;;9.05;100.00;98851.13;5093980;28;20215;-61
2022/12/06 07:27:07;;;;;;;57.25;32.90;;;;;;;9.40;100.00;98901.63;5093888;28;20184;-60
2022/12/06 07:29:32;;;;;;;55.60;31.95;;;;;;;9.21;100.00;98875.16;5094155;28;20179;-61
2022/12/06 07:31:58;;;;;;;59.92;30.77;;;;;;;9.55;100.00;98911.09;5093858;28;20179;-61
2022/12/06 07:34:23;;;;;;;56.65;30.65;;;;;;;9.52;100.00;98900.09;5094099;28;20223;-60
2022/12/06 07:36:48;;;;;;;57.53;32.15;;;;;;;9.22;100.00;98855.34;5094084;28;20169;-61
2022/12/06 07:39:14;;;;;;;54.60;29.63;;;;;;;9.38;100.00;98887.94;5093734;28;20195;-61
2022/12/06 07:47:07;;;;;;;55.25;29.65;;;;;;;9.25;100.00;98866.31;5092341;28;20163;-61
2022/12/06 07:49:33;;;;;;;54.30;28.67;;;;;;;9.48;100.00;98907.19;5093425;28;20185;-61
2022/12/06 07:51:58;;;;;;;57.70;27.70;;;;;;;9.28;100.00;98861.00;5093767;28;20183;-61
2022/12/06 07:54:24;;;;;;;51.55;28.17;;;;;;;9.50;100.00;98914.84;5093726;28;20594;-61
2022/12/06 07:56:50;;;;;;;48.72;28.42;;;;;;;9.50;100.00;98891.59;5093679;28;20177;-61
2022/12/06 07:59:15;;;;;;;56.42;28.10;;;;;;;9.24;100.00;98856.91;5093643;28;20176;-61
2022/12/06 08:01:42;;;;;;;64.03;28.35;;;;;;;9.42;100.00;98866.22;5094043;28;20681;-61
2022/12/06 08:04:07;;;;;;;51.25;28.23;;;;;;;9.64;100.00;98901.06;5093805;28;20271;-62
2022/12/06 08:06:33;;;;;;;51.13;29.58;;;;;;;9.38;100.00;98859.53;5094306;28;20208;-61
2022/12/06 08:08:59;;;;;;;54.97;28.42;;;;;;;9.43;100.00;98854.94;5093438;28;20180;-61
2022/12/06 08:11:24;;;;;;;53.20;28.83;;;;;;;9.45;100.00;98852.28;5093454;28;20194;-61
2022/12/06 08:13:51;;;;;;;56.15;28.35;;;;;;;9.70;100.00;98885.19;5093406;28;20184;-61
2022/12/06 08:16:17;;;;;;;48.40;26.75;;;;;;;9.57;100.00;98858.41;5093074;28;20172;-61
2022/12/06 08:18:42;;;;;;;54.08;31.88;;;;;;;9.84;100.00;98903.34;5093311;28;20191;-61
2022/12/06 08:21:09;;;;;;;54.00;28.50;;;;;;;9.82;100.00;98905.16;5093279;28;20184;-61
2022/12/06 08:23:35;;;;;;;59.92;34.80;;;;;;;9.63;100.00;98867.59;5092672;28;20206;-61
2022/12/06 08:26:04;;;;;;;61.78;32.63;;;;;;;9.60;100.00;98852.25;5093146;28;20180;-61
2022/12/06 08:28:31;;;;;;;62.45;34.90;;;;;;;9.78;100.00;98905.44;5093108;28;20252;-61
2022/12/06 08:30:57;;;;;;;73.65;37.03;;;;;;;9.53;100.00;98846.59;5093026;28;20204;-61
2022/12/06 08:33:23;;;;;;;73.10;37.20;;;;;;;9.73;100.00;98883.38;5093010;28;20180;-61
2022/12/06 08:35:49;;;;;;;71.20;34.90;;;;;;;9.72;100.00;98887.69;5093552;28;20177;-61
2022/12/06 08:38:15;;;;;;;63.90;36.83;;;;;;;9.74;100.00;98896.19;5093032;28;20238;-61
2022/12/06 08:40:41;;;;;;;65.38;39.05;;;;;;;9.29;100.00;98843.75;5093167;28;20263;-61
2022/12/06 08:43:06;;;;;;;75.78;38.47;;;;;;;9.53;100.00;98879.34;5093108;28;20229;-61
2022/12/06 08:45:32;;;;;;;67.47;37.13;;;;;;;9.14;100.00;98829.94;5093173;28;20173;-61
2022/12/06 08:47:58;;;;;;;71.90;35.47;;;;;;;8.93;100.00;98807.94;5092165;28;20195;-61
2022/12/06 08:50:23;;;;;;;69.85;35.75;;;;;;;8.96;100.00;98818.06;5092737;28;20176;-61
2022/12/06 08:52:49;;;;;;;68.20;34.35;;;;;;;9.04;100.00;98821.03;5092431;28;20184;-61
2022/12/06 08:55:14;;;;;;;77.07;37.75;;;;;;;9.05;100.00;98816.72;5093505;28;20172;-61
2022/12/06 08:57:39;;;;;;;61.63;34.95;;;;;;;9.00;100.00;98809.25;5092666;28;20173;-61
2022/12/06 09:00:06;;;;;;;59.22;34.00;;;;;;;9.27;100.00;98830.09;5090729;28;20176;-61
2022/12/06 09:02:32;;;;;;;65.13;33.80;;;;;;;9.02;100.00;98791.91;5090819;28;20690;-61
2022/12/06 09:04:57;;;;;;;64.32;36.15;;;;;;;9.41;100.00;98846.47;5090374;28;20225;-61
2022/12/06 09:07:25;;;;;;;75.30;36.75;;;;;;;9.30;100.00;98815.25;5090558;28;20176;-61
2022/12/06 09:09:52;;;;;;;63.03;33.17;;;;;;;9.40;100.00;98843.97;5090245;28;20669;-61
2022/12/06 09:12:17;;;;;;;58.05;33.63;;;;;;;9.49;100.00;98846.84;5090209;28;20618;-61
2022/12/06 09:14:43;;;;;;;52.20;31.35;;;;;;;9.46;100.00;98841.88;5090253;28;20195;-61
2022/12/06 09:17:08;;;;;;;57.90;30.13;;;;;;;9.30;100.00;98784.28;5090717;28;20180;-61
2022/12/06 09:19:34;;;;;;;56.00;30.65;;;;;;;9.68;100.00;98839.69;5090155;28;20334;-61
2022/12/06 09:21:59;;;;;;;51.58;30.30;;;;;;;9.48;100.00;98790.13;5089962;28;20200;-61
2022/12/06 09:24:24;;;;;;;53.67;29.30;;;;;;;9.56;100.00;98785.34;5089983;28;20787;-60
2022/12/06 09:26:50;;;;;;;42.78;26.38;;;;;;;9.35;100.00;98743.53;5090553;28;20210;-60
2022/12/06 09:29:16;;;;;;;52.20;28.55;;;;;;;9.86;100.00;98836.06;5089945;28;20184;-60
2022/12/06 09:31:42;;;;;;;50.05;29.05;;;;;;;9.77;100.00;98816.75;5091646;28;20284;-60
2022/12/06 09:34:08;;;;;;;58.97;31.30;;;;;;;9.64;100.00;98814.97;5093925;28;20172;-61
2022/12/06 09:36:39;;;;;;;68.88;32.42;;;;;;;9.52;100.00;98776.94;5096634;28;20180;-60
2022/12/06 09:39:15;;;;;;;56.05;30.85;;;;;;;9.73;100.00;98807.53;5096951;28;20650;-61
2022/12/06 09:41:59;;;;;;;60.10;31.90;;;;;;;9.68;100.00;98817.28;5096843;28;20200;-60
2022/12/06 09:44:39;;;;;;;55.40;31.05;;;;;;;9.67;100.00;98819.97;5096801;28;20232;-60
2022/12/06 09:47:23;;;;;;;53.40;28.48;;;;;;;9.80;100.00;98818.34;5096250;28;20211;-61
2022/12/06 09:50:07;;;;;;;51.25;28.58;;;;;;;9.77;100.00;98815.91;5096529;28;20164;-60
2022/12/06 09:53:04;;;;;;;56.38;32.72;;;;;;;9.67;100.00;98794.13;5096501;28;20160;-61
2022/12/06 09:55:50;;;;;;;49.10;29.67;;;;;;;9.84;100.00;98814.63;5096038;28;20169;-60
2022/12/06 09:58:27;;;;;;;50.22;26.80;;;;;;;9.77;100.00;98803.84;5096070;28;20717;-60
2022/12/06 10:00:59;;;;;;;47.88;26.85;;;;;;;9.80;100.00;98806.22;5096843;28;20262;-61
2022/12/06 10:03:30;;;;;;;50.35;29.05;;;;;;;9.80;100.00;98792.50;5095924;28;20282;-60
2022/12/06 10:06:04;;;;;;;56.00;31.20;;;;;;;9.44;100.00;98753.31;5095906;28;20180;-60
2022/12/06 10:08:39;;;;;;;56.50;30.05;;;;;;;9.62;100.00;98793.56;5096648;28;20210;-60
2022/12/06 10:11:39;;;;;;;53.58;29.85;;;;;;;9.71;100.00;98787.84;5096044;28;20187;-60
2022/12/06 10:14:11;;;;;;;52.10;27.65;;;;;;;9.73;100.00;98783.41;5095736;28;20634;-60
2022/12/06 10:17:18;;;;;;;51.75;29.08;;;;;;;9.60;100.00;98777.31;5095705;28;20711;-60
2022/12/06 10:20:06;;;;;;;57.97;33.97;;;;;;;9.43;100.00;98753.41;5095638;28;20549;-60
2022/12/06 10:22:56;;;;;;;49.45;28.63;;;;;;;9.52;100.00;98766.63;5095759;28;20188;-61
2022/12/06 10:25:32;;;;;;;60.22;32.97;;;;;;;9.49;100.00;98748.69;5095500;28;20204;-63
2022/12/06 10:28:12;;;;;;;66.50;33.10;;;;;;;9.51;100.00;98757.22;5095492;28;20661;-61
2022/12/06 10:31:00;;;;;;;65.78;32.92;;;;;;;9.54;100.00;98749.28;5095692;28;20180;-61
2022/12/06 10:33:51;;;;;;;54.38;28.95;;;;;;;9.54;100.00;98749.28;5095950;28;20173;-61
2022/12/06 10:36:44;;;;;;;49.92;28.52;;;;;;;9.58;100.00;98740.44;5052950;28;20378;-60
2022/12/06 10:39:32;;;;;;;51.83;29.13;;;;;;;9.61;100.00;98735.06;4993337;28;20785;-60
2022/12/06 10:42:11;;;;;;;49.17;27.75;;;;;;;9.34;100.00;98684.22;4987991;28;20336;-60
2022/12/06 10:44:46;;;;;;;48.08;28.17;;;;;;;9.55;100.00;98719.13;4993800;28;20187;-61
2022/12/06 10:47:21;;;;;;;53.60;30.13;;;;;;;9.70;100.00;98725.00;4992970;28;20226;-60
2022/12/06 10:49:56;;;;;;;58.33;30.42;;;;;;;9.72;100.00;98719.75;4993820;28;20202;-60
2022/12/06 10:52:45;;;;;;;61.22;33.22;;;;;;;9.82;100.00;98713.94;4993133;28;20195;-61
2022/12/06 10:55:18;;;;;;;49.75;25.85;;;;;;;9.83;100.00;98707.03;4993326;28;20179;-60
2022/12/06 10:57:56;;;;;;;48.03;26.35;;;;;;;9.87;100.00;98700.75;4993277;28;20290;-60
2022/12/06 11:00:24;;;;;;;42.53;24.80;;;;;;;9.59;100.00;98643.91;4993147;28;20736;-60
2022/12/06 11:03:13;;;;;;;39.42;23.65;;;;;;;9.86;100.00;98675.84;4992868;28;20221;-60
2022/12/06 11:06:06;;;;;;;42.97;26.48;;;;;;;9.92;100.00;98684.03;4992865;28;20223;-60
2022/12/06 11:08:45;;;;;;;43.53;24.27;;;;;;;9.47;100.00;98597.34;4992865;28;20263;-60
2022/12/06 11:11:17;;;;;;;40.28;22.00;;;;;;;9.90;100.00;98670.38;4992901;28;20278;-60
2022/12/06 11:13:51;;;;;;;51.38;27.65;;;;;;;9.84;100.00;98662.16;5019503;28;20217;-60
2022/12/06 11:16:32;;;;;;;127.13;59.53;;;;;;;9.63;100.00;98618.72;5053457;28;20188;-60
2022/12/06 11:19:21;;;;;;;87.72;44.13;;;;;;;9.85;100.00;98671.56;5074863;28;20162;-61
2022/12/06 11:21:54;;;;;;;80.50;42.20;;;;;;;9.58;100.00;98625.00;5074078;28;20204;-61
2022/12/06 11:24:29;;;;;;;69.85;37.22;;;;;;;9.69;100.00;98639.88;5074469;28;20244;-61
2022/12/06 11:27:22;;;;;;;54.50;32.00;;;;;;;9.76;100.00;98638.56;5074163;28;20649;-61
2022/12/06 11:29:49;;;;;;;36.15;21.50;;;;;;;9.61;100.00;98587.81;5074037;28;20177;-61
2022/12/06 11:32:17;;;;;;;52.35;29.27;;;;;;;9.58;100.00;98599.16;5074780;28;20181;-60
2022/12/06 11:34:48;;;;;;;39.85;23.05;;;;;;;9.80;100.00;98638.25;5073933;28;20240;-61
2022/12/06 11:37:22;;;;;;;73.15;39.80;;;;;;;9.62;100.00;98612.72;5073895;28;20631;-60
2022/12/06 11:39:52;;;;;;;51.90;29.50;;;;;;;9.52;100.00;98603.91;5073881;28;20177;-61
2022/12/06 11:42:24;;;;;;;40.50;22.48;;;;;;;9.77;100.00;98643.63;5073693;28;20253;-60
2022/12/06 11:45:21;;;;;;;26.65;18.35;;;;;;;9.83;100.00;98643.25;5074528;28;20173;-60
2022/12/06 11:47:47;;;;;;;27.25;16.35;;;;;;;9.68;100.00;98611.53;5073703;28;20663;-60
2022/12/06 11:50:16;;;;;;;30.52;18.60;;;;;;;9.57;100.00;98590.69;5072293;28;20178;-60
2022/12/06 11:52:54;;;;;;;29.23;18.52;;;;;;;9.65;100.00;98597.03;5073558;28;20185;-61
2022/12/06 11:55:24;;;;;;;29.05;18.40;;;;;;;9.41;100.00;98561.56;5073227;28;20172;-61